< < Back
Terminal Aerodrome Forecast


Current Version              Previous Versions:   1  2  3  4  5  6  7  8  9  

Terminal Aerodrome Forecast

952
FTUS42 KTAE 252326
TAFDHN
TAF
KDHN 252326Z 2600/2624 24005KT P6SM SCT050
      TEMPO 2600/2602 07010G18KT 6SM -TSRA BKN050CB
     FM262100 33006KT 6SM TSRA SCT025CB BKN040=



Latest METAR

308
SAUS70 KWBC 260800 RRF
MTRDHN
METAR KDHN 260753Z AUTO 23007KT 10SM CLR 26/23 A3010 RMK AO2 SLP187
T02560233


USA.gov is the U.S. government's official web portal to all federal, state and local government web resources and services.